Time;durP1;ratioP1;P1;durP2;ratioP2;P2;SDS_P1;SDS_P2;PMS_P1;PMS_P2;Temp;Humidity;BMP_temperature;BMP_pressure;BME280_temperature;BME280_humidity;BME280_pressure;Samples;Min_cycle;Max_cycle;Signal;HPM_P1;HPM_P2
2022/10/12 00:00:48;;;;;;;0.57;0.57;;;18.90;47.20;;;;;;6116053;23;20148;-86
2022/10/12 00:03:19;;;;;;;0.40;0.40;;;18.90;47.20;;;;;;6091601;23;20160;-86
2022/10/12 00:06:07;;;;;;;0.93;0.50;;;18.90;47.30;;;;;;6052517;23;20234;-85
2022/10/12 00:08:39;;;;;;;0.52;0.45;;;18.90;47.30;;;;;;6053009;23;20162;-86
2022/10/12 00:11:22;;;;;;;0.82;0.40;;;18.90;47.30;;;;;;6053096;23;20221;-86
2022/10/12 00:13:55;;;;;;;1.55;0.52;;;18.90;47.20;;;;;;6052701;23;20162;-86
2022/10/12 00:16:22;;;;;;;2.38;0.55;;;18.90;47.40;;;;;;6030917;23;20161;-86
2022/10/12 00:18:54;;;;;;;0.85;0.60;;;18.90;47.20;;;;;;6029624;23;20266;-86
2022/10/12 00:21:36;;;;;;;0.77;0.50;;;18.80;47.20;;;;;;6028805;23;20158;-86
2022/10/12 00:24:21;;;;;;;0.55;0.47;;;18.80;47.20;;;;;;6005577;23;20198;-86
2022/10/12 00:27:06;;;;;;;0.68;0.50;;;18.80;47.30;;;;;;6048267;23;20156;-86
2022/10/12 00:29:58;;;;;;;0.77;0.65;;;18.80;47.40;;;;;;5932476;23;20187;-86
2022/10/12 00:32:35;;;;;;;0.40;0.40;;;18.80;47.50;;;;;;5996558;23;20155;-86
2022/10/12 00:35:34;;;;;;;1.55;0.50;;;18.80;47.40;;;;;;5939712;24;20183;-86
2022/10/12 00:37:59;;;;;;;0.40;0.40;;;18.80;47.40;;;;;;5967913;24;20273;-86
2022/10/12 00:40:30;;;;;;;0.50;0.40;;;18.80;47.40;;;;;;5963179;24;20153;-86
2022/10/12 00:42:59;;;;;;;1.08;0.50;;;18.80;47.40;;;;;;5963217;24;20216;-86
2022/10/12 00:45:38;;;;;;;0.55;0.40;;;18.80;47.50;;;;;;5966331;24;20155;-85
2022/10/12 00:48:09;;;;;;;1.02;0.50;;;18.80;47.40;;;;;;5972822;24;20238;-86
2022/10/12 00:50:40;;;;;;;0.80;0.50;;;18.70;47.40;;;;;;6023870;23;20150;-86
2022/10/12 00:53:33;;;;;;;0.50;0.50;;;18.80;47.60;;;;;;6036923;23;20210;-86
2022/10/12 00:56:12;;;;;;;0.60;0.40;;;18.80;47.60;;;;;;6028723;23;20244;-86
2022/10/12 00:58:49;;;;;;;0.57;0.50;;;18.80;47.70;;;;;;6052562;23;20169;-86
2022/10/12 01:01:29;;;;;;;0.80;0.50;;;18.80;47.60;;;;;;6053741;23;20149;-85
2022/10/12 01:04:06;;;;;;;0.82;0.50;;;18.80;47.70;;;;;;6026880;23;20238;-85
2022/10/12 01:06:35;;;;;;;0.40;0.40;;;18.80;47.60;;;;;;6054574;23;20159;-86
2022/10/12 01:09:04;;;;;;;1.55;0.52;;;18.70;47.60;;;;;;6056754;23;20289;-86
2022/10/12 01:11:49;;;;;;;0.63;0.47;;;18.80;47.70;;;;;;6043450;23;20181;-85
2022/10/12 01:14:26;;;;;;;0.65;0.50;;;18.70;47.70;;;;;;6057884;23;20169;-85
2022/10/12 01:17:12;;;;;;;0.43;0.43;;;18.70;47.60;;;;;;6057453;23;20189;-86
2022/10/12 01:20:21;;;;;;;0.65;0.43;;;18.70;47.80;;;;;;6054565;23;20153;-86
2022/10/12 01:23:15;;;;;;;0.93;0.50;;;18.70;48.30;;;;;;6037401;23;20149;-85
2022/10/12 01:26:10;;;;;;;0.50;0.50;;;18.70;47.80;;;;;;6061996;23;20161;-86
2022/10/12 01:29:11;;;;;;;1.15;0.50;;;18.80;47.80;;;;;;6004717;23;20499;-86
2022/10/12 01:31:51;;;;;;;0.63;0.50;;;18.70;47.90;;;;;;6094233;23;20175;-86
2022/10/12 01:34:41;;;;;;;0.45;0.40;;;18.80;47.90;;;;;;6067514;23;20152;-86
2022/10/12 01:37:54;;;;;;;1.73;0.40;;;18.70;47.90;;;;;;6067578;23;20292;-86
2022/10/12 01:40:36;;;;;;;2.55;0.70;;;18.70;47.90;;;;;;6113390;23;20151;-86
2022/10/12 01:43:20;;;;;;;1.27;0.60;;;18.70;47.90;;;;;;6187359;23;20153;-85
2022/10/12 01:45:55;;;;;;;0.35;0.35;;;18.70;47.90;;;;;;6210647;23;20128;-86
2022/10/12 01:48:32;;;;;;;0.57;0.50;;;18.70;48.00;;;;;;6185586;23;20152;-86
2022/10/12 01:51:15;;;;;;;0.45;0.40;;;18.70;47.90;;;;;;6234979;23;20137;-85
2022/10/12 01:54:19;;;;;;;0.93;0.40;;;18.70;48.00;;;;;;6119903;23;20179;-86
2022/10/12 01:57:35;;;;;;;0.40;0.40;;;18.70;48.00;;;;;;6144287;23;20135;-86
2022/10/12 02:00:20;;;;;;;0.60;0.47;;;18.70;48.00;;;;;;6057326;23;20149;-86
2022/10/12 02:03:38;;;;;;;;;;;;;;;;;;;;;
2022/10/12 02:06:22;;;;;;;0.32;0.32;;;18.60;48.00;;;;;;6028132;23;20176;-86
2022/10/12 02:09:01;;;;;;;0.35;0.35;;;18.70;48.10;;;;;;6015711;23;20159;-86
2022/10/12 02:11:29;;;;;;;1.35;0.50;;;18.70;48.20;;;;;;5994710;24;20163;-86
2022/10/12 02:14:20;;;;;;;0.52;0.52;;;18.70;48.20;;;;;;5949271;24;20155;-85
2022/10/12 02:16:57;;;;;;;0.50;0.50;;;18.70;48.20;;;;;;5939719;24;20640;-85
2022/10/12 02:19:51;;;;;;;0.40;0.35;;;18.60;48.20;;;;;;5939582;24;20232;-86
2022/10/12 02:22:35;;;;;;;0.38;0.38;;;18.70;48.30;;;;;;5917085;24;20157;-85
2022/10/12 02:25:17;;;;;;;0.65;0.40;;;18.60;48.30;;;;;;5916125;24;20200;-85
2022/10/12 02:27:58;;;;;;;0.68;0.45;;;18.70;48.30;;;;;;5888751;24;20168;-86
2022/10/12 02:30:37;;;;;;;1.88;0.40;;;18.70;48.30;;;;;;5888913;24;20176;-85
2022/10/12 02:33:27;;;;;;;0.57;0.38;;;18.60;48.30;;;;;;5899042;24;20183;-85
2022/10/12 02:35:57;;;;;;;0.40;0.40;;;18.60;48.30;;;;;;5938802;24;20196;-86
2022/10/12 02:38:43;;;;;;;0.35;0.30;;;18.60;48.30;;;;;;5938055;24;20192;-86
2022/10/12 02:41:20;;;;;;;0.82;0.40;;;18.60;48.30;;;;;;5891552;24;20173;-85
2022/10/12 02:43:53;;;;;;;0.93;0.52;;;18.60;48.40;;;;;;5939959;24;20164;-85
2022/10/12 02:46:35;;;;;;;1.05;0.50;;;18.70;48.30;;;;;;5993552;23;20160;-86
2022/10/12 02:49:09;;;;;;;0.95;0.40;;;18.60;48.30;;;;;;6051926;23;20244;-86
2022/10/12 02:52:02;;;;;;;0.40;0.40;;;18.60;48.30;;;;;;6003687;23;20166;-86
2022/10/12 02:54:31;;;;;;;0.50;0.45;;;18.60;48.40;;;;;;6007551;23;20214;-85
2022/10/12 02:57:07;;;;;;;0.50;0.43;;;18.60;48.40;;;;;;6027012;23;20192;-85
2022/10/12 02:59:56;;;;;;;;;;;;;;;;;;;;;
2022/10/12 03:02:48;;;;;;;0.47;0.40;;;18.60;48.40;;;;;;5969724;23;20231;-86
2022/10/12 03:05:18;;;;;;;0.98;0.30;;;18.60;48.60;;;;;;6050615;23;20246;-87
2022/10/12 03:08:00;;;;;;;1.85;0.40;;;18.60;48.40;;;;;;6046912;23;20653;-85
2022/10/12 03:10:50;;;;;;;0.50;0.40;;;18.60;48.50;;;;;;6018427;23;20195;-85
2022/10/12 03:13:37;;;;;;;0.60;0.50;;;18.60;48.50;;;;;;5995136;23;20155;-85
2022/10/12 03:16:15;;;;;;;0.93;0.60;;;18.60;48.60;;;;;;5995085;23;20174;-86
2022/10/12 03:18:57;;;;;;;0.43;0.40;;;18.60;48.60;;;;;;5972115;23;20190;-85
2022/10/12 03:21:35;;;;;;;0.32;0.32;;;18.60;48.60;;;;;;6015615;23;20563;-86
2022/10/12 03:24:01;;;;;;;0.88;0.40;;;18.60;48.60;;;;;;5966073;24;20264;-86
2022/10/12 03:26:36;;;;;;;0.90;0.50;;;18.50;48.60;;;;;;5994736;23;20190;-86
2022/10/12 03:29:19;;;;;;;0.40;0.40;;;18.60;48.70;;;;;;5995826;23;20155;-85
2022/10/12 03:31:55;;;;;;;0.38;0.38;;;18.60;48.70;;;;;;5994585;23;20162;-86
2022/10/12 03:34:36;;;;;;;0.90;0.45;;;18.50;48.60;;;;;;5995198;23;20163;-86
2022/10/12 03:37:17;;;;;;;0.80;0.40;;;18.60;48.70;;;;;;5994432;23;20186;-86
2022/10/12 03:39:47;;;;;;;0.75;0.30;;;18.60;48.70;;;;;;6039117;23;20155;-87
2022/10/12 03:42:17;;;;;;;0.57;0.45;;;18.60;48.70;;;;;;5981442;23;20149;-86
2022/10/12 03:44:48;;;;;;;1.00;0.45;;;18.60;48.70;;;;;;6032300;23;20154;-86
2022/10/12 03:47:36;;;;;;;0.55;0.50;;;18.60;48.70;;;;;;6009424;23;20165;-86
2022/10/12 03:50:33;;;;;;;0.52;0.50;;;18.60;48.70;;;;;;6055614;23;20153;-85
2022/10/12 03:53:06;;;;;;;0.43;0.43;;;18.50;48.70;;;;;;6033509;23;20188;-85
2022/10/12 03:55:38;;;;;;;0.40;0.40;;;18.60;48.80;;;;;;6088450;23;20198;-85
2022/10/12 04:01:57;;;;;;;0.50;0.40;;;18.50;48.80;;;;;;6169356;23;20171;-86
2022/10/12 04:05:00;;;;;;;1.15;0.50;;;18.50;48.80;;;;;;6121645;23;20151;-85
2022/10/12 04:07:45;;;;;;;0.60;0.40;;;18.60;48.90;;;;;;6089019;23;20156;-85
2022/10/12 04:10:22;;;;;;;0.50;0.40;;;18.50;48.90;;;;;;6088637;23;20216;-86
2022/10/12 04:13:25;;;;;;;0.55;0.47;;;18.50;48.90;;;;;;6030373;23;20174;-86
2022/10/12 04:16:21;;;;;;;1.08;0.50;;;18.60;48.90;;;;;;5946444;24;20164;-85
2022/10/12 04:18:59;;;;;;;0.40;0.30;;;18.60;48.90;;;;;;5950749;24;20196;-86
2022/10/12 04:21:51;;;;;;;1.05;0.47;;;18.50;48.90;;;;;;5945926;24;20160;-86
2022/10/12 04:24:16;;;;;;;0.50;0.30;;;18.50;48.90;;;;;;5930928;24;20268;-85
2022/10/12 04:26:51;;;;;;;0.63;0.35;;;18.50;48.90;;;;;;5918120;24;20235;-86
2022/10/12 04:29:20;;;;;;;0.52;0.30;;;18.50;49.00;;;;;;5917973;24;20219;-86
2022/10/12 04:32:07;;;;;;;1.13;0.50;;;18.50;49.00;;;;;;5918155;24;20169;-85
2022/10/12 04:34:40;;;;;;;0.45;0.45;;;18.50;49.00;;;;;;5918003;24;20187;-86
2022/10/12 04:37:10;;;;;;;0.43;0.38;;;18.50;49.00;;;;;;5916678;24;20192;-86
2022/10/12 04:39:53;;;;;;;1.15;0.47;;;18.50;49.00;;;;;;5899566;24;20160;-85
2022/10/12 04:42:47;;;;;;;0.98;0.40;;;18.50;49.00;;;;;;5940141;24;20156;-86
2022/10/12 04:45:15;;;;;;;0.32;0.32;;;18.50;49.00;;;;;;5862981;24;20162;-85
2022/10/12 04:48:00;;;;;;;0.40;0.40;;;18.50;49.00;;;;;;5864042;24;20162;-86
2022/10/12 04:50:38;;;;;;;1.10;0.50;;;18.40;48.90;;;;;;5848437;24;20164;-86
2022/10/12 04:53:14;;;;;;;0.50;0.32;;;18.50;49.10;;;;;;5922913;24;20462;-86
2022/10/12 04:55:45;;;;;;;0.50;0.38;;;18.50;49.10;;;;;;5900818;24;20160;-85
2022/10/12 04:58:15;;;;;;;2.35;0.50;;;18.50;49.10;;;;;;5906021;23;20237;-86
2022/10/12 05:00:43;;;;;;;0.70;0.40;;;18.50;49.10;;;;;;5955133;23;20166;-86
2022/10/12 05:03:16;;;;;;;0.40;0.40;;;18.40;49.00;;;;;;5909107;23;20692;-85
2022/10/12 05:06:00;;;;;;;1.15;0.32;;;18.50;49.10;;;;;;5980464;23;20159;-85
2022/10/12 05:08:42;;;;;;;0.32;0.32;;;18.50;48.90;;;;;;5982765;23;20154;-85
2022/10/12 05:11:24;;;;;;;0.38;0.30;;;18.50;48.60;;;;;;5960311;23;20229;-85
2022/10/12 05:13:50;;;;;;;1.30;0.40;;;18.60;48.30;;;;;;5981996;23;20677;-85
2022/10/12 05:16:33;;;;;;;0.52;0.52;;;18.60;47.90;;;;;;6006254;23;20150;-86
2022/10/12 05:19:07;;;;;;;0.40;0.40;;;18.60;47.60;;;;;;5959146;23;20260;-86
2022/10/12 05:21:56;;;;;;;0.50;0.50;;;18.60;47.40;;;;;;5973002;24;20159;-85
2022/10/12 05:24:42;;;;;;;0.60;0.60;;;18.60;47.20;;;;;;5968120;23;20199;-86
2022/10/12 05:27:27;;;;;;;0.60;0.60;;;18.70;47.00;;;;;;5967592;24;20152;-86
2022/10/12 05:29:52;;;;;;;0.82;0.70;;;18.70;47.10;;;;;;5952123;24;20163;-86
2022/10/12 05:32:43;;;;;;;0.63;0.63;;;18.70;46.90;;;;;;5941299;24;20157;-86
2022/10/12 05:35:28;;;;;;;0.77;0.60;;;18.70;46.80;;;;;;5896257;24;20188;-86
2022/10/12 05:38:01;;;;;;;0.50;0.50;;;18.70;46.60;;;;;;5940178;24;20371;-86
2022/10/12 05:40:28;;;;;;;0.43;0.43;;;18.70;46.60;;;;;;5930146;24;20171;-86
2022/10/12 05:43:06;;;;;;;0.80;0.80;;;18.70;46.40;;;;;;5951412;24;20164;-85
2022/10/12 05:45:38;;;;;;;0.75;0.75;;;18.80;46.40;;;;;;5973347;24;20184;-85
2022/10/12 05:48:09;;;;;;;0.70;0.60;;;18.70;46.40;;;;;;5974604;24;20643;-85
2022/10/12 05:50:38;;;;;;;0.63;0.60;;;18.70;46.50;;;;;;5973285;24;20199;-86
2022/10/12 05:53:08;;;;;;;1.40;0.60;;;18.70;46.50;;;;;;5925946;24;20168;-86
2022/10/12 05:55:59;;;;;;;0.52;0.52;;;18.70;46.50;;;;;;5918972;24;20161;-86
2022/10/12 05:58:41;;;;;;;0.77;0.65;;;18.80;46.50;;;;;;5941338;24;20191;-86
2022/10/12 06:01:15;;;;;;;0.52;0.52;;;18.70;46.40;;;;;;5942332;24;20594;-86
2022/10/12 06:03:54;;;;;;;2.05;0.77;;;18.80;46.50;;;;;;5949867;24;20156;-86
2022/10/12 06:06:46;;;;;;;0.70;0.57;;;18.70;46.30;;;;;;5942340;24;20175;-86
2022/10/12 06:09:43;;;;;;;0.55;0.43;;;18.80;46.30;;;;;;5919377;24;20160;-86
2022/10/12 06:12:23;;;;;;;1.27;0.60;;;18.80;46.40;;;;;;5881206;24;20169;-86
2022/10/12 06:15:31;;;;;;;0.70;0.70;;;18.80;46.40;;;;;;5893867;24;20191;-85
2022/10/12 07:16:23;;;;;;;2.40;0.82;;;19.00;46.50;;;;;;6300896;22;20232;-80
2022/10/12 07:18:51;;;;;;;2.53;0.77;;;19.00;46.70;;;;;;6197523;23;20259;-81
2022/10/12 07:21:20;;;;;;;2.08;0.70;;;19.00;46.70;;;;;;6196987;23;20145;-80
2022/10/12 07:23:48;;;;;;;0.70;0.60;;;19.00;46.60;;;;;;6170834;23;20152;-79
2022/10/12 07:26:16;;;;;;;2.35;0.70;;;18.90;46.70;;;;;;6195877;23;20192;-81
2022/10/12 07:28:45;;;;;;;4.15;0.70;;;19.00;47.10;;;;;;6247712;23;20141;-80
2022/10/12 07:31:30;;;;;;;0.68;0.60;;;19.00;47.00;;;;;;6170448;23;20157;-80
2022/10/12 07:34:16;;;;;;;2.63;0.70;;;19.00;47.00;;;;;;6244476;23;20162;-80
2022/10/12 07:36:43;;;;;;;1.17;0.63;;;19.10;47.10;;;;;;6218316;23;20261;-79
2022/10/12 07:39:15;;;;;;;1.15;0.50;;;19.00;47.10;;;;;;6221903;23;20145;-79
2022/10/12 07:41:44;;;;;;;1.55;0.80;;;19.10;47.30;;;;;;6173252;23;20157;-79
2022/10/12 07:44:12;;;;;;;1.70;0.80;;;19.10;47.30;;;;;;6173215;23;20207;-79
2022/10/12 07:46:38;;;;;;;0.73;0.63;;;19.10;47.40;;;;;;6222958;23;20141;-80
2022/10/12 07:49:05;;;;;;;0.98;0.50;;;19.10;47.30;;;;;;6196883;23;20461;-79
2022/10/12 07:51:33;;;;;;;2.25;0.77;;;19.10;47.90;;;;;;6121988;23;20201;-80
2022/10/12 07:54:06;;;;;;;0.73;0.60;;;19.10;47.30;;;;;;6172135;23;20176;-80
2022/10/12 07:56:38;;;;;;;2.40;0.75;;;19.10;47.20;;;;;;6147431;23;20153;-80
2022/10/12 07:59:07;;;;;;;0.60;0.60;;;19.10;47.10;;;;;;6222059;23;20608;-79
2022/10/12 08:01:33;;;;;;;0.90;0.70;;;19.10;47.20;;;;;;6197356;23;20145;-81
2022/10/12 08:03:59;;;;;;;0.98;0.82;;;19.20;47.20;;;;;;6197462;23;20130;-80
2022/10/12 08:06:27;;;;;;;2.25;0.70;;;19.20;47.10;;;;;;6172795;23;20226;-80
2022/10/12 08:08:55;;;;;;;1.33;0.73;;;19.20;47.20;;;;;;6195373;23;20154;-79
2022/10/12 08:11:21;;;;;;;2.63;0.70;;;19.20;47.10;;;;;;6248343;23;20145;-80
2022/10/12 08:14:42;;;;;;;1.80;0.70;;;19.20;47.10;;;;;;6197227;23;20145;-80
2022/10/12 08:17:10;;;;;;;1.45;0.77;;;19.20;47.20;;;;;;6097159;23;20640;-79
2022/10/12 08:19:41;;;;;;;2.65;0.55;;;19.20;47.30;;;;;;6049571;23;20565;-80
2022/10/12 08:22:07;;;;;;;1.33;0.75;;;19.20;47.40;;;;;;6049113;23;20145;-80
2022/10/12 08:24:34;;;;;;;1.20;0.50;;;19.20;47.10;;;;;;6073365;23;20159;-80
2022/10/12 08:27:05;;;;;;;1.90;0.60;;;19.20;47.00;;;;;;6072692;23;20141;-80
2022/10/12 08:29:54;;;;;;;2.58;0.90;;;19.30;46.80;;;;;;6073071;23;20143;-80
2022/10/12 08:32:30;;;;;;;0.57;0.50;;;19.20;46.90;;;;;;6043632;23;20154;-80
2022/10/12 08:46:36;;;;;;;4.05;0.60;;;19.30;47.10;;;;;;5989641;24;20233;-81
2022/10/12 08:49:31;;;;;;;4.82;0.77;;;19.20;47.20;;;;;;5883298;24;20157;-80
2022/10/12 09:02:12;;;;;;;2.33;0.73;;;19.30;47.30;;;;;;6232138;23;20489;-84
2022/10/12 09:15:57;;;;;;;1.67;0.70;;;19.40;47.10;;;;;;6077187;23;20164;-84
2022/10/12 09:21:54;;;;;;;2.03;0.65;;;19.30;47.20;;;;;;6072744;23;20497;-81
2022/10/12 09:25:31;;;;;;;;;;;;;;;;;;;;;
2022/10/12 09:32:01;;;;;;;0.95;0.70;;;19.20;47.60;;;;;;5882106;24;20248;-82
2022/10/12 09:34:36;;;;;;;0.98;0.57;;;19.30;47.00;;;;;;5882375;24;20200;-82
2022/10/12 09:37:02;;;;;;;3.05;0.60;;;19.30;46.80;;;;;;5866429;24;20170;-81
2022/10/12 09:39:43;;;;;;;1.42;0.60;;;19.30;46.80;;;;;;5866004;24;20160;-81
2022/10/12 09:42:09;;;;;;;0.50;0.50;;;19.30;46.80;;;;;;5910458;24;20675;-81
2022/10/12 09:44:51;;;;;;;2.78;0.80;;;19.30;46.70;;;;;;5860297;24;20168;-81
2022/10/12 09:47:31;;;;;;;3.80;0.77;;;19.30;46.70;;;;;;5905489;24;20624;-81
2022/10/12 09:50:01;;;;;;;1.45;0.40;;;19.40;46.60;;;;;;5873662;24;20215;-81
2022/10/12 09:52:40;;;;;;;1.50;0.50;;;19.40;46.40;;;;;;5960907;24;20156;-81
2022/10/12 10:02:42;;;;;;;0.80;0.70;;;19.40;46.20;;;;;;5997805;23;20206;-81
2022/10/12 10:05:24;;;;;;;0.93;0.50;;;19.40;46.00;;;;;;6148968;23;20208;-81
2022/10/12 10:08:23;;;;;;;0.68;0.40;;;19.40;46.00;;;;;;6233762;23;20154;-82
2022/10/12 10:11:41;;;;;;;2.30;0.80;;;19.40;46.00;;;;;;6210399;23;20180;-82
2022/10/12 10:14:50;;;;;;;1.92;0.40;;;19.40;45.80;;;;;;6167028;23;20155;-82
2022/10/12 10:17:36;;;;;;;6.47;0.52;;;19.40;45.50;;;;;;6132299;23;20179;-82
2022/10/12 10:20:23;;;;;;;0.65;0.45;;;19.40;45.70;;;;;;6140782;23;20155;-82
2022/10/12 10:23:41;;;;;;;1.75;0.50;;;19.40;45.50;;;;;;6137549;23;20159;-82
2022/10/12 10:26:47;;;;;;;0.55;0.30;;;19.40;45.30;;;;;;6117403;23;20152;-82
2022/10/12 10:29:35;;;;;;;2.00;0.60;;;19.40;45.30;;;;;;6051983;23;20152;-81
2022/10/12 10:32:23;;;;;;;1.10;0.60;;;19.40;45.50;;;;;;6114633;23;20227;-81
2022/10/12 10:35:19;;;;;;;0.70;0.40;;;19.40;45.60;;;;;;6091772;23;20151;-81
2022/10/12 10:37:57;;;;;;;1.35;0.60;;;19.40;45.50;;;;;;6113947;23;20183;-80
2022/10/12 10:40:29;;;;;;;0.80;0.40;;;19.40;45.60;;;;;;6091519;23;20135;-81
2022/10/12 10:43:02;;;;;;;0.57;0.40;;;19.40;45.60;;;;;;6066373;23;20156;-81
2022/10/12 10:45:32;;;;;;;0.77;0.50;;;19.40;45.70;;;;;;6091175;23;20235;-81
2022/10/12 10:48:14;;;;;;;2.13;0.50;;;19.40;45.60;;;;;;6035423;23;20233;-81
2022/10/12 10:50:56;;;;;;;0.40;0.40;;;19.40;45.60;;;;;;6055642;23;20194;-82
2022/10/12 10:53:43;;;;;;;0.40;0.40;;;19.40;45.70;;;;;;6078274;23;20619;-82
2022/10/12 10:56:28;;;;;;;0.85;0.50;;;19.40;45.70;;;;;;6116419;23;20159;-82
2022/10/12 11:01:39;;;;;;;0.60;0.35;;;19.40;45.50;;;;;;6198601;22;20667;-82
2022/10/12 11:12:54;;;;;;;2.25;0.82;;;19.40;45.00;;;;;;6269699;22;20204;-83
2022/10/12 11:15:31;;;;;;;0.95;0.50;;;19.40;45.30;;;;;;6194396;22;20157;-82
2022/10/12 11:18:18;;;;;;;1.33;0.40;;;19.40;45.10;;;;;;6140863;23;20192;-83
2022/10/12 11:20:59;;;;;;;1.40;0.40;;;19.40;45.00;;;;;;6170334;23;20153;-82
2022/10/12 11:23:48;;;;;;;2.75;0.47;;;19.40;45.10;;;;;;6164215;23;20187;-82
2022/10/12 11:26:33;;;;;;;4.32;0.55;;;19.40;44.90;;;;;;6212440;23;20172;-83
2022/10/12 11:29:05;;;;;;;0.65;0.55;;;19.40;44.80;;;;;;6189445;23;20149;-83
2022/10/12 11:32:02;;;;;;;2.67;0.55;;;19.40;45.00;;;;;;6211033;23;20213;-81
2022/10/12 11:38:27;;;;;;;0.45;0.30;;;19.30;44.60;;;;;;6094027;23;20198;-84
2022/10/12 11:41:44;;;;;;;0.55;0.50;;;19.30;44.50;;;;;;6049468;23;20240;-83
2022/10/12 11:44:26;;;;;;;0.65;0.50;;;19.40;44.50;;;;;;6036567;23;20186;-83
2022/10/12 11:47:04;;;;;;;1.42;0.47;;;19.40;44.60;;;;;;6008767;23;20195;-83
2022/10/12 11:49:47;;;;;;;0.30;0.30;;;19.30;44.40;;;;;;6004727;23;20170;-82
2022/10/12 11:52:26;;;;;;;1.05;0.30;;;19.30;44.30;;;;;;5930668;24;20164;-84
2022/10/12 11:55:23;;;;;;;0.43;0.40;;;19.40;44.10;;;;;;5950271;23;20165;-83
2022/10/12 12:58:15;;;;;;;0.32;0.32;;;19.50;43.20;;;;;;6215009;22;20200;-84
2022/10/12 13:01:04;;;;;;;1.85;0.50;;;19.50;43.40;;;;;;6188524;23;20142;-84
2022/10/12 13:04:03;;;;;;;0.40;0.35;;;19.50;43.40;;;;;;6069179;23;20251;-84
2022/10/12 13:07:15;;;;;;;0.55;0.50;;;19.50;43.20;;;;;;6093345;23;20172;-84
2022/10/12 13:10:15;;;;;;;1.65;0.60;;;19.50;43.10;;;;;;6102418;23;20133;-84
2022/10/12 13:13:26;;;;;;;0.70;0.60;;;19.50;42.70;;;;;;6067240;23;20155;-84
2022/10/12 13:16:16;;;;;;;2.78;0.50;;;19.50;43.00;;;;;;6057982;23;20157;-85
2022/10/12 13:19:15;;;;;;;0.82;0.40;;;19.50;43.50;;;;;;5998347;23;20209;-86
2022/10/12 14:50:45;;;;;;;1.85;0.40;;;19.60;42.90;;;;;;6188074;23;20201;31
2022/10/12 14:53:43;;;;;;;0.55;0.38;;;19.60;42.60;;;;;;6201252;23;20221;-83
2022/10/12 14:56:17;;;;;;;0.65;0.43;;;19.60;42.90;;;;;;6113115;23;20235;-84
2022/10/12 14:59:37;;;;;;;0.65;0.50;;;19.60;42.80;;;;;;6191648;23;20186;-82
2022/10/12 15:02:13;;;;;;;0.65;0.35;;;19.60;42.70;;;;;;6021244;23;20165;-82
2022/10/12 15:05:05;;;;;;;0.28;0.28;;;19.60;42.30;;;;;;6026084;23;20185;-82
2022/10/12 15:07:32;;;;;;;0.30;0.30;;;19.60;42.30;;;;;;6011634;23;20154;-82
2022/10/12 15:10:17;;;;;;;0.60;0.40;;;19.60;42.80;;;;;;6017598;23;20161;-82
2022/10/12 15:12:52;;;;;;;0.50;0.50;;;19.50;42.30;;;;;;5957618;23;20214;-82
2022/10/12 15:16:08;;;;;;;0.40;0.40;;;19.60;42.50;;;;;;5936807;23;20245;-84
2022/10/12 15:19:20;;;;;;;0.35;0.30;;;19.50;42.30;;;;;;6023099;23;20200;-83
2022/10/12 15:22:20;;;;;;;0.32;0.32;;;19.50;42.20;;;;;;6015088;23;20155;-83
2022/10/12 15:25:13;;;;;;;0.40;0.40;;;19.50;42.10;;;;;;5978702;24;20166;-82
2022/10/12 15:28:45;;;;;;;;;;;;;;;;;;;;;
2022/10/12 16:33:00;;;;;;;0.50;0.50;;;19.60;41.50;;;;;;6264624;23;20284;-81
2022/10/12 16:35:30;;;;;;;0.50;0.50;;;19.60;41.60;;;;;;6264397;23;20562;-82
2022/10/12 16:37:57;;;;;;;1.02;0.50;;;19.60;41.60;;;;;;6212146;23;20180;-82
2022/10/12 16:40:28;;;;;;;1.88;0.80;;;19.60;42.20;;;;;;6213957;23;20217;-83
2022/10/12 16:43:03;;;;;;;0.88;0.60;;;19.60;42.40;;;;;;6166234;23;20180;-81
2022/10/12 16:45:35;;;;;;;0.60;0.60;;;19.60;42.40;;;;;;6186585;23;20133;-83
2022/10/12 16:48:25;;;;;;;1.48;0.50;;;19.60;42.50;;;;;;6212005;23;20206;-83
2022/10/12 16:51:08;;;;;;;1.17;0.80;;;19.60;42.60;;;;;;6138808;23;20187;-83
2022/10/12 16:53:43;;;;;;;3.97;0.80;;;19.60;42.60;;;;;;6166534;23;20178;-82
2022/10/12 16:56:12;;;;;;;1.17;0.80;;;19.60;42.60;;;;;;6052674;23;20181;-81
2022/10/12 16:58:39;;;;;;;0.80;0.75;;;19.60;42.60;;;;;;6081138;23;20189;-81
2022/10/12 17:01:26;;;;;;;0.60;0.60;;;19.60;42.80;;;;;;6051587;23;20153;-82
2022/10/12 17:03:53;;;;;;;6.65;0.73;;;19.70;43.10;;;;;;6053131;23;20213;-81
2022/10/12 17:06:20;;;;;;;1.15;0.73;;;19.60;43.10;;;;;;6038141;23;20156;-84
2022/10/12 17:08:54;;;;;;;2.33;0.60;;;19.70;43.10;;;;;;6035949;23;20468;-82
2022/10/12 17:11:24;;;;;;;2.35;0.70;;;19.70;43.20;;;;;;6036391;23;20554;-83
2022/10/12 17:14:29;;;;;;;0.95;0.82;;;19.70;43.20;;;;;;6039189;23;20173;-84
2022/10/12 17:17:07;;;;;;;1.58;0.90;;;19.70;43.30;;;;;;6193930;22;20209;-84
2022/10/12 17:20:02;;;;;;;0.88;0.80;;;19.70;43.30;;;;;;6163353;23;20161;-83
2022/10/12 17:22:28;;;;;;;4.28;0.98;;;19.70;43.30;;;;;;6150608;23;20163;-84
2022/10/12 18:04:09;;;;;;;3.75;1.30;;;19.50;44.00;;;;;;6234975;22;20353;-84
